ナンディ の空港の天気 - METARとTAF

ナンディ国際空港 ( NFFN / NAN ) - フィジー ナンディ (ビティレブ島)
飛行場実況気象(Metar)
観測時間12/10 18:00 FJST (12/10 05:00 UTC)
風向・風速南南東 5m/s
視程10km以上
天気現象
全天の4割程度の雲 雲底高度 910m
全天の4割程度の雲 雲底高度 1520m
気温29℃
湿度52%
気圧1005hPa
METARNFFN 100500Z 15009KT 9999 SCT030 SCT050 29/18 Q1005 NOSIG
過去の天気等 Google飛行場航空写真 Wunderground天気予報

過去48時間のMETAR

飛行場予報(TAF)
発表時間: 12/10 15:18 FJST (12/10 02:18 UTC)
予報対象時間: 10日15時 FJST ~ 11日13時 FJST
風向・風速西 5m/s
視程10km以上
全天の4割程度の雲 雲底高度 910m
10日17時 FJST ~ 10日19時 FJST に徐々に
風向・風速東南東 5m/s
11日12時 FJST ~ 11日14時 FJST に徐々に
風向・風速西 5m/s
TAF AMD NFFN 100218Z 1002/1024 26010KT 9999 SCT030
BECMG 1004/1006 12010KT
BECMG 1023/1101 27010KT